createdAt,value
2023-02-28T00:00:09.627Z,92840.00
2023-02-28T00:01:09.670Z,92842.00
2023-02-28T00:02:09.835Z,92840.00
2023-02-28T00:03:09.897Z,92840.00
2023-02-28T00:04:09.847Z,92844.00
2023-02-28T00:05:09.911Z,92842.00
2023-02-28T00:06:09.962Z,92842.00
2023-02-28T00:07:10.017Z,92840.00
2023-02-28T00:08:10.081Z,92838.00
2023-02-28T00:09:10.146Z,92842.00
2023-02-28T00:10:10.198Z,92840.00
2023-02-28T00:11:10.259Z,92840.00
2023-02-28T00:12:10.311Z,92840.00
2023-02-28T01:53:15.932Z,92844.00
2023-02-28T01:54:15.993Z,92840.00
2023-02-28T01:55:16.163Z,92842.00
2023-02-28T01:56:16.098Z,92842.00
2023-02-28T01:57:16.141Z,92838.00
2023-02-28T01:58:16.176Z,92838.00
2023-02-28T01:59:16.300Z,92836.00
2023-02-28T02:00:16.277Z,92838.00
2023-02-28T02:01:16.932Z,92836.00
2023-02-28T02:02:16.325Z,92836.00
2023-02-28T02:03:17.406Z,92836.00
2023-02-28T02:04:16.449Z,92838.00
2023-02-28T02:05:16.482Z,92836.00
2023-02-28T02:06:16.517Z,92838.00
2023-02-28T02:07:16.546Z,92836.00
2023-02-28T02:08:16.601Z,92838.00
2023-02-28T02:09:16.653Z,92836.00
2023-02-28T02:10:16.700Z,92836.00
2023-02-28T02:11:16.759Z,92836.00
2023-02-28T02:12:16.822Z,92836.00
2023-02-28T02:13:16.857Z,92838.00
2023-02-28T02:14:16.911Z,92836.00
2023-02-28T02:15:16.973Z,92838.00
2023-02-28T02:43:18.464Z,92830.00
2023-02-28T02:44:18.521Z,92834.00
2023-02-28T02:45:18.559Z,92830.00
2023-02-28T02:46:18.622Z,92836.00
2023-02-28T02:47:18.648Z,92838.00
2023-02-28T02:48:18.714Z,92840.00
2023-02-28T02:49:18.747Z,92840.00
2023-02-28T02:50:18.813Z,92842.00
2023-02-28T02:51:18.858Z,92840.00
2023-02-28T02:52:18.916Z,92840.00
2023-02-28T02:53:18.968Z,92838.00
2023-02-28T02:54:19.025Z,92836.00
2023-02-28T02:55:19.050Z,92838.00
2023-02-28T02:56:19.110Z,92840.00
2023-02-28T02:57:19.236Z,92840.00
2023-02-28T02:58:19.235Z,92838.00
2023-02-28T02:59:19.274Z,92838.00
2023-02-28T03:00:19.321Z,92840.00
2023-02-28T03:01:19.395Z,92838.00
2023-02-28T03:02:19.417Z,92838.00
2023-02-28T03:03:19.480Z,92840.00
2023-02-28T03:04:19.523Z,92838.00
2023-02-28T03:05:19.569Z,92840.00
2023-02-28T03:06:19.621Z,92840.00
2023-02-28T03:07:19.665Z,92840.00
2023-02-28T03:08:19.723Z,92844.00
2023-02-28T03:09:19.774Z,92844.00
2023-02-28T03:10:19.830Z,92842.00
2023-02-28T03:11:19.876Z,92836.00
2023-02-28T03:12:20.001Z,92836.00
2023-02-28T03:13:20.421Z,92836.00
2023-02-28T03:14:20.025Z,92840.00
2023-02-28T03:15:20.088Z,92842.00
2023-02-28T03:44:21.552Z,92840.00
2023-02-28T03:45:21.588Z,92840.00
2023-02-28T03:46:21.633Z,92840.00
2023-02-28T03:48:21.747Z,92838.00
2023-02-28T03:49:21.810Z,92844.00
2023-02-28T03:50:22.435Z,92846.00
2023-02-28T03:51:21.869Z,92846.00
2023-02-28T03:52:21.930Z,92846.00
2023-02-28T03:53:21.999Z,92848.00
2023-02-28T03:54:22.053Z,92848.00
2023-02-28T03:55:22.095Z,92844.00
2023-02-28T03:56:22.153Z,92844.00
2023-02-28T03:57:22.294Z,92848.00
2023-02-28T03:58:22.280Z,92848.00
2023-02-28T03:59:22.320Z,92850.00
2023-02-28T04:00:22.410Z,92852.00
2023-02-28T04:01:22.490Z,92850.00
2023-02-28T04:02:22.501Z,92848.00
2023-02-28T04:03:22.553Z,92848.00
2023-02-28T04:04:22.638Z,92852.00
2023-02-28T04:05:22.663Z,92852.00
2023-02-28T04:06:23.447Z,92852.00
2023-02-28T04:07:22.779Z,92852.00
2023-02-28T04:08:22.833Z,92852.00
2023-02-28T04:09:22.891Z,92854.00
2023-02-28T04:10:24.012Z,92852.00
2023-02-28T04:11:22.996Z,92852.00
2023-02-28T04:12:23.041Z,92854.00
2023-02-28T04:13:23.098Z,92854.00
2023-02-28T04:14:23.146Z,92852.00
2023-02-28T04:15:23.201Z,92850.00
2023-02-28T04:16:34.420Z,92854.00
2023-02-28T04:17:24.229Z,92854.00
2023-02-28T04:18:23.218Z,92856.00
2023-02-28T04:19:23.214Z,92852.00
2023-02-28T04:20:23.205Z,92856.00
2023-02-28T04:21:23.218Z,92856.00
2023-02-28T04:22:23.268Z,92856.00
2023-02-28T04:23:23.185Z,92852.00
2023-02-28T04:24:23.181Z,92854.00
2023-02-28T04:25:23.176Z,92856.00
2023-02-28T04:26:23.168Z,92852.00
2023-02-28T04:38:23.354Z,92850.00
2023-02-28T04:39:23.383Z,92850.00
2023-02-28T04:40:23.424Z,92854.00
2023-02-28T04:41:23.436Z,92854.00
2023-02-28T04:42:23.462Z,92854.00
2023-02-28T04:43:23.488Z,92852.00
2023-02-28T04:44:23.959Z,92852.00
2023-02-28T04:45:23.531Z,92852.00
2023-02-28T04:46:23.557Z,92854.00
2023-02-28T04:47:23.592Z,92854.00
2023-02-28T04:48:23.585Z,92850.00
2023-02-28T04:49:23.617Z,92850.00
2023-02-28T04:50:23.627Z,92850.00
2023-02-28T04:51:23.657Z,92852.00
2023-02-28T04:52:23.672Z,92854.00
2023-02-28T04:53:23.687Z,92856.00
2023-02-28T04:54:23.714Z,92856.00
2023-02-28T04:55:23.728Z,92856.00
2023-02-28T04:56:23.748Z,92858.00
2023-02-28T04:57:23.767Z,92856.00
2023-02-28T04:58:23.792Z,92856.00
2023-02-28T04:59:23.813Z,92856.00
2023-02-28T05:00:23.829Z,92856.00
2023-02-28T05:01:23.847Z,92858.00
2023-02-28T05:02:23.915Z,92858.00
2023-02-28T05:03:23.896Z,92856.00
2023-02-28T05:04:23.926Z,92856.00
2023-02-28T05:05:23.933Z,92858.00
2023-02-28T05:06:23.945Z,92860.00
2023-02-28T05:07:23.978Z,92863.00
2023-02-28T05:08:24.034Z,92863.00
2023-02-28T05:09:24.013Z,92867.00
2023-02-28T05:10:24.032Z,92865.00
2023-02-28T05:11:24.052Z,92867.00
2023-02-28T05:12:24.085Z,92867.00
2023-02-28T05:13:24.098Z,92869.00
2023-02-28T05:14:24.123Z,92869.00
2023-02-28T05:15:24.135Z,92873.00
2023-02-28T05:16:24.239Z,92873.00
2023-02-28T05:17:24.177Z,92875.00
2023-02-28T05:18:24.193Z,92877.00
2023-02-28T05:19:24.221Z,92881.00
2023-02-28T05:20:24.235Z,92881.00
2023-02-28T05:21:24.254Z,92881.00
2023-02-28T05:22:24.303Z,92885.00
2023-02-28T05:23:24.293Z,92887.00
2023-02-28T05:24:24.324Z,92885.00
2023-02-28T05:25:24.339Z,92885.00
2023-02-28T05:26:24.982Z,92885.00
2023-02-28T05:27:24.372Z,92885.00
2023-02-28T05:28:24.475Z,92883.00
2023-02-28T05:29:24.470Z,92883.00
2023-02-28T05:30:24.465Z,92887.00
2023-02-28T05:31:24.529Z,92887.00
2023-02-28T05:32:24.627Z,92889.00
2023-02-28T05:33:24.554Z,92887.00
2023-02-28T05:34:24.576Z,92887.00
2023-02-28T05:35:24.623Z,92887.00
2023-02-28T05:36:24.628Z,92889.00
2023-02-28T05:37:24.646Z,92891.00
2023-02-28T05:38:25.473Z,92891.00
2023-02-28T05:39:24.794Z,92891.00
2023-02-28T05:40:24.724Z,92891.00
2023-02-28T05:41:24.754Z,92893.00
2023-02-28T05:42:24.787Z,92893.00
2023-02-28T05:43:25.466Z,92895.00
2023-02-28T05:44:24.834Z,92899.00
2023-02-28T05:45:24.864Z,92897.00
2023-02-28T05:46:24.897Z,92897.00
2023-02-28T05:47:25.003Z,92897.00
2023-02-28T05:48:24.960Z,92897.00
2023-02-28T05:49:24.974Z,92897.00
2023-02-28T05:50:24.999Z,92901.00
2023-02-28T05:51:25.026Z,92905.00
2023-02-28T05:52:25.069Z,92903.00
2023-02-28T05:53:25.148Z,92905.00
2023-02-28T05:54:25.135Z,92909.00
2023-02-28T05:55:25.163Z,92909.00
2023-02-28T05:56:25.273Z,92909.00
2023-02-28T05:57:25.236Z,92911.00
2023-02-28T05:58:25.277Z,92905.00
2023-02-28T05:59:25.309Z,92909.00
2023-02-28T06:00:25.342Z,92909.00
2023-02-28T06:01:25.376Z,92907.00
2023-02-28T06:02:25.414Z,92909.00
2023-02-28T06:03:25.467Z,92911.00
2023-02-28T06:04:31.880Z,92918.00
2023-02-28T06:05:26.470Z,92913.00
2023-02-28T06:06:25.455Z,92916.00
2023-02-28T06:07:25.440Z,92913.00
2023-02-28T06:08:25.442Z,92916.00
2023-02-28T06:09:25.442Z,92915.00
2023-02-28T06:10:25.425Z,92915.00
2023-02-28T06:11:25.430Z,92916.00
2023-02-28T06:12:25.410Z,92918.00
2023-02-28T06:13:25.411Z,92918.00
2023-02-28T06:14:25.390Z,92916.00
2023-02-28T06:15:25.391Z,92916.00
2023-02-28T06:16:25.473Z,92922.00
2023-02-28T06:17:25.378Z,92922.00
2023-02-28T06:18:25.374Z,92926.00
2023-02-28T06:19:25.423Z,92924.00
2023-02-28T06:20:25.435Z,92922.00
2023-02-28T06:21:25.470Z,92926.00
2023-02-28T06:22:25.510Z,92924.00
2023-02-28T06:23:25.564Z,92928.00
2023-02-28T06:24:25.600Z,92924.00
2023-02-28T06:25:25.648Z,92928.00
2023-02-28T06:26:25.692Z,92928.00
2023-02-28T06:27:25.718Z,92928.00
2023-02-28T06:28:25.751Z,92934.00
2023-02-28T06:29:25.791Z,92938.00
2023-02-28T06:30:25.837Z,92938.00
2023-02-28T06:31:25.896Z,92934.00
2023-02-28T06:32:25.953Z,92934.00
2023-02-28T06:33:25.911Z,92936.00
2023-02-28T06:34:25.952Z,92938.00
2023-02-28T06:35:26.003Z,92936.00
2023-02-28T06:36:26.013Z,92938.00
2023-02-28T06:37:26.032Z,92940.00
2023-02-28T06:38:26.058Z,92942.00
2023-02-28T06:39:26.124Z,92942.00
2023-02-28T06:40:26.128Z,92944.00
2023-02-28T06:41:26.168Z,92942.00
2023-02-28T06:42:26.175Z,92944.00
2023-02-28T06:43:26.198Z,92946.00
2023-02-28T06:44:26.239Z,92944.00
2023-02-28T06:45:26.264Z,92946.00
2023-02-28T06:46:26.363Z,92948.00
2023-02-28T06:47:26.320Z,92946.00
2023-02-28T06:48:26.353Z,92946.00
2023-02-28T06:49:26.390Z,92944.00
2023-02-28T06:50:26.419Z,92946.00
2023-02-28T06:51:26.438Z,92948.00
2023-02-28T06:52:26.484Z,92950.00
2023-02-28T06:53:26.495Z,92950.00
2023-02-28T06:54:26.528Z,92948.00
2023-02-28T06:55:26.565Z,92952.00
2023-02-28T06:56:26.595Z,92952.00
2023-02-28T06:57:26.612Z,92950.00
2023-02-28T06:58:26.632Z,92952.00
2023-02-28T06:59:26.658Z,92948.00
2023-02-28T07:00:26.697Z,92950.00
2023-02-28T07:01:26.864Z,92952.00
2023-02-28T07:02:27.712Z,92954.00
2023-02-28T07:03:26.737Z,92950.00
2023-02-28T07:04:26.712Z,92950.00
2023-02-28T07:05:26.686Z,92950.00
2023-02-28T07:06:26.679Z,92952.00
2023-02-28T07:07:27.503Z,92952.00
2023-02-28T07:08:26.666Z,92952.00
2023-02-28T07:09:26.654Z,92956.00
2023-02-28T07:10:26.645Z,92954.00
2023-02-28T07:11:26.984Z,92950.00
2023-02-28T07:12:27.587Z,92954.00
2023-02-28T07:13:26.628Z,92950.00
2023-02-28T07:14:26.614Z,92952.00
2023-02-28T07:15:26.619Z,92952.00
2023-02-28T07:16:26.722Z,92950.00
2023-02-28T07:17:26.599Z,92948.00
2023-02-28T07:18:26.604Z,92948.00
2023-02-28T07:19:26.611Z,92944.00
2023-02-28T07:20:26.630Z,92944.00
2023-02-28T07:21:26.670Z,92948.00
2023-02-28T07:22:26.715Z,92948.00
2023-02-28T07:23:26.694Z,92954.00
2023-02-28T07:24:26.714Z,92952.00
2023-02-28T07:25:26.720Z,92952.00
2023-02-28T07:26:26.790Z,92956.00
2023-02-28T07:27:26.831Z,92954.00
2023-02-28T07:28:26.793Z,92954.00
2023-02-28T07:29:26.823Z,92954.00
2023-02-28T07:30:26.844Z,92958.00
2023-02-28T07:31:27.090Z,92958.00
2023-02-28T07:32:26.938Z,92958.00
2023-02-28T07:33:26.899Z,92962.00
2023-02-28T07:34:26.923Z,92962.00
2023-02-28T07:35:26.985Z,92960.00
2023-02-28T07:36:26.966Z,92962.00
2023-02-28T07:37:26.976Z,92960.00
2023-02-28T07:38:27.004Z,92962.00
2023-02-28T07:39:27.015Z,92962.00
2023-02-28T07:40:27.029Z,92963.00
2023-02-28T07:41:27.380Z,92960.00
2023-02-28T07:42:27.071Z,92963.00
2023-02-28T07:43:27.107Z,92960.00
2023-02-28T07:44:27.119Z,92956.00
2023-02-28T07:45:27.140Z,92954.00
2023-02-28T07:46:30.217Z,92958.00
2023-02-28T07:47:27.170Z,92958.00
2023-02-28T07:48:27.165Z,92960.00
2023-02-28T07:49:27.534Z,92958.00
2023-02-28T07:50:27.274Z,92963.00
2023-02-28T07:51:27.319Z,92962.00
2023-02-28T07:52:27.128Z,92962.00
2023-02-28T07:53:27.139Z,92963.00
2023-02-28T07:54:27.123Z,92965.00
2023-02-28T07:55:27.178Z,92962.00
2023-02-28T07:56:27.582Z,92967.00
2023-02-28T07:57:27.106Z,92963.00
2023-02-28T07:59:27.077Z,92967.00
2023-02-28T08:00:27.201Z,92967.00
2023-02-28T08:01:27.156Z,92971.00
2023-02-28T08:02:27.063Z,92973.00
2023-02-28T08:03:27.062Z,92977.00
2023-02-28T08:04:27.049Z,92977.00
2023-02-28T08:05:27.039Z,92977.00
2023-02-28T08:06:27.027Z,92977.00
2023-02-28T12:12:33.335Z,92797.00
2023-02-28T12:15:33.636Z,92793.00
2023-02-28T12:25:33.361Z,92776.00
2023-02-28T12:26:33.410Z,92776.00
2023-02-28T12:29:33.674Z,92772.00
2023-02-28T12:40:34.329Z,92746.00
2023-02-28T12:50:34.812Z,92740.00
2023-02-28T12:59:35.239Z,92730.00
2023-02-28T13:01:35.244Z,92730.00
2023-02-28T13:17:35.208Z,92715.00
2023-02-28T13:18:35.225Z,92715.00
2023-02-28T13:19:35.230Z,92713.00
2023-02-28T13:20:35.216Z,92715.00
2023-02-28T13:21:35.222Z,92713.00
2023-02-28T13:22:35.220Z,92711.00
2023-02-28T13:23:35.222Z,92709.00
2023-02-28T13:24:35.239Z,92703.00
2023-02-28T13:25:35.237Z,92705.00
2023-02-28T13:26:35.246Z,92705.00
2023-02-28T13:27:35.256Z,92705.00
2023-02-28T13:28:35.315Z,92705.00
2023-02-28T15:03:37.635Z,92668.00
2023-02-28T15:04:37.633Z,92668.00
2023-02-28T15:05:37.646Z,92666.00
2023-02-28T15:06:37.655Z,92666.00
2023-02-28T15:07:37.647Z,92662.00
2023-02-28T15:08:37.650Z,92664.00
2023-02-28T15:09:37.662Z,92666.00
2023-02-28T15:10:37.657Z,92668.00
2023-02-28T15:11:37.658Z,92668.00
2023-02-28T15:12:37.672Z,92670.00
2023-02-28T15:13:37.658Z,92670.00
2023-02-28T15:14:37.676Z,92670.00
2023-02-28T15:15:40.841Z,92672.00
2023-02-28T15:17:37.651Z,92675.00
2023-02-28T15:18:37.640Z,92672.00
2023-02-28T15:19:37.642Z,92674.00
2023-02-28T15:20:37.627Z,92672.00
2023-02-28T15:21:37.628Z,92674.00
2023-02-28T15:22:37.609Z,92677.00
2023-02-28T15:23:37.609Z,92677.00
2023-02-28T15:24:37.604Z,92670.00
2023-02-28T15:25:37.598Z,92675.00
2023-02-28T15:26:37.588Z,92672.00
2023-02-28T15:27:37.654Z,92674.00
2023-02-28T15:28:37.572Z,92677.00
2023-02-28T15:29:38.199Z,92675.00
2023-02-28T15:30:37.557Z,92675.00
2023-02-28T15:31:55.424Z,92675.00
2023-02-28T15:32:38.604Z,92677.00
2023-02-28T15:33:37.535Z,92677.00
2023-02-28T15:34:42.920Z,92679.00
2023-02-28T15:35:38.530Z,92679.00
2023-02-28T15:36:37.535Z,92681.00
2023-02-28T15:37:37.553Z,92679.00
2023-02-28T15:38:37.510Z,92683.00
2023-02-28T15:39:37.501Z,92681.00
2023-02-28T15:40:37.591Z,92683.00
2023-02-28T15:41:37.487Z,92683.00
2023-02-28T15:42:37.474Z,92687.00
2023-02-28T15:44:38.186Z,92683.00
2023-02-28T15:45:37.481Z,92685.00
2023-02-28T15:46:37.458Z,92687.00
2023-02-28T15:47:37.443Z,92689.00
2023-02-28T15:48:37.448Z,92687.00
2023-02-28T15:49:44.652Z,92689.00
2023-02-28T15:50:38.432Z,92687.00
2023-02-28T15:51:37.431Z,92689.00
2023-02-28T15:52:37.436Z,92689.00
2023-02-28T15:53:37.408Z,92693.00
2023-02-28T16:09:37.368Z,92709.00
2023-02-28T16:10:37.281Z,92711.00
2023-02-28T16:11:37.309Z,92711.00
2023-02-28T16:12:37.363Z,92709.00
2023-02-28T16:13:37.360Z,92711.00
2023-02-28T16:14:37.381Z,92715.00
2023-02-28T16:15:37.411Z,92709.00
2023-02-28T16:16:37.459Z,92713.00
2023-02-28T16:17:37.462Z,92715.00
2023-02-28T16:18:37.479Z,92715.00
2023-02-28T16:19:37.509Z,92715.00
2023-02-28T16:20:37.545Z,92719.00
2023-02-28T16:21:37.569Z,92721.00
2023-02-28T16:22:37.601Z,92723.00
2023-02-28T16:23:37.619Z,92723.00
2023-02-28T16:24:37.643Z,92725.00
2023-02-28T16:25:37.672Z,92726.00
2023-02-28T16:26:37.705Z,92728.00
2023-02-28T16:27:37.739Z,92730.00
2023-02-28T16:28:37.761Z,92734.00
2023-02-28T16:29:37.802Z,92736.00
2023-02-28T16:30:37.854Z,92734.00
2023-02-28T16:31:37.849Z,92736.00
2023-02-28T16:32:37.946Z,92740.00
2023-02-28T16:33:37.895Z,92742.00
2023-02-28T16:34:37.946Z,92746.00
2023-02-28T16:35:37.973Z,92746.00
2023-02-28T16:36:37.992Z,92752.00
2023-02-28T16:37:38.722Z,92754.00
2023-02-28T16:38:38.222Z,92756.00
2023-02-28T16:39:38.078Z,92754.00
2023-02-28T16:40:38.109Z,92754.00
2023-02-28T16:41:38.146Z,92758.00
2023-02-28T16:42:38.174Z,92758.00
2023-02-28T16:43:38.203Z,92764.00
2023-02-28T16:44:38.235Z,92762.00
2023-02-28T16:45:38.373Z,92766.00
2023-02-28T16:46:39.225Z,92768.00
2023-02-28T16:47:38.338Z,92768.00
2023-02-28T16:48:38.371Z,92768.00
2023-02-28T16:49:38.400Z,92770.00
2023-02-28T16:50:38.442Z,92772.00
2023-02-28T16:51:38.471Z,92774.00
2023-02-28T16:52:38.516Z,92772.00
2023-02-28T16:53:38.547Z,92776.00
2023-02-28T16:54:38.582Z,92776.00
2023-02-28T16:55:38.619Z,92777.00
2023-02-28T16:56:38.656Z,92776.00
2023-02-28T16:57:38.691Z,92787.00
2023-02-28T16:58:38.799Z,92779.00
2023-02-28T16:59:38.774Z,92785.00
2023-02-28T17:00:38.797Z,92783.00
2023-02-28T17:01:39.033Z,92785.00
2023-02-28T17:02:41.297Z,92791.00
2023-02-28T17:03:38.950Z,92793.00
2023-02-28T17:04:38.860Z,92795.00
2023-02-28T17:05:38.860Z,92795.00
2023-02-28T17:06:38.852Z,92799.00
2023-02-28T17:07:38.844Z,92801.00
2023-02-28T17:08:38.844Z,92799.00
2023-02-28T17:09:43.088Z,92803.00
2023-02-28T17:10:39.822Z,92801.00
2023-02-28T17:11:38.821Z,92807.00
2023-02-28T17:12:38.891Z,92807.00
2023-02-28T17:13:38.805Z,92809.00
2023-02-28T17:14:38.786Z,92811.00
2023-02-28T17:15:38.964Z,92815.00
2023-02-28T17:16:38.833Z,92815.00
2023-02-28T17:17:38.777Z,92821.00
2023-02-28T17:18:39.240Z,92823.00
2023-02-28T17:19:38.767Z,92832.00
2023-02-28T17:20:38.747Z,92830.00
2023-02-28T17:21:39.731Z,92832.00
2023-02-28T17:22:38.895Z,92836.00
2023-02-28T17:23:38.876Z,92840.00
2023-02-28T17:24:38.904Z,92838.00
2023-02-28T17:25:38.948Z,92842.00
2023-02-28T17:26:38.978Z,92842.00
2023-02-28T17:27:39.035Z,92846.00
2023-02-28T17:28:39.068Z,92846.00
2023-02-28T17:29:39.099Z,92848.00
2023-02-28T17:30:39.143Z,92854.00
2023-02-28T17:31:40.290Z,92852.00
2023-02-28T17:32:39.259Z,92854.00
2023-02-28T17:33:39.744Z,92858.00
2023-02-28T17:34:39.308Z,92858.00
2023-02-28T17:35:39.386Z,92858.00
2023-02-28T17:36:39.393Z,92856.00
2023-02-28T17:37:39.545Z,92858.00
2023-02-28T17:38:39.484Z,92861.00
2023-02-28T17:39:39.532Z,92865.00
2023-02-28T17:40:39.568Z,92863.00
2023-02-28T17:41:39.608Z,92869.00
2023-02-28T17:42:39.702Z,92869.00
2023-02-28T17:43:39.704Z,92873.00
2023-02-28T17:44:39.734Z,92873.00
2023-02-28T17:45:39.789Z,92879.00
2023-02-28T17:46:39.883Z,92881.00
2023-02-28T17:47:39.865Z,92879.00
2023-02-28T17:48:39.908Z,92885.00
2023-02-28T17:49:39.972Z,92883.00
2023-02-28T17:51:40.038Z,92885.00
2023-02-28T17:52:40.075Z,92889.00
2023-02-28T17:53:40.124Z,92891.00
2023-02-28T17:54:40.146Z,92891.00
2023-02-28T17:55:40.190Z,92895.00
2023-02-28T17:56:40.753Z,92895.00
2023-02-28T17:57:40.279Z,92897.00
2023-02-28T17:58:40.333Z,92895.00
2023-02-28T17:59:40.360Z,92895.00
2023-02-28T18:00:40.404Z,92901.00
2023-02-28T18:01:40.526Z,92901.00
2023-02-28T18:02:40.526Z,92899.00
2023-02-28T18:03:40.532Z,92901.00
2023-02-28T18:04:40.584Z,92901.00
2023-02-28T18:05:40.611Z,92905.00
2023-02-28T18:06:40.669Z,92905.00
2023-02-28T18:07:40.720Z,92907.00
2023-02-28T18:08:40.799Z,92909.00
2023-02-28T18:09:40.808Z,92907.00
2023-02-28T18:10:40.843Z,92911.00
2023-02-28T18:11:40.888Z,92911.00
2023-02-28T18:12:40.926Z,92913.00
2023-02-28T18:13:40.979Z,92913.00
2023-02-28T18:14:41.036Z,92913.00
2023-02-28T18:15:41.061Z,92913.00
2023-02-28T18:16:41.189Z,92915.00
2023-02-28T18:17:41.162Z,92916.00
2023-02-28T18:18:41.759Z,92915.00
2023-02-28T18:19:41.774Z,92915.00
2023-02-28T18:20:41.288Z,92918.00
2023-02-28T18:21:41.336Z,92920.00
2023-02-28T18:22:41.391Z,92918.00
2023-02-28T18:23:41.637Z,92920.00
2023-02-28T18:24:42.230Z,92915.00
2023-02-28T18:25:41.553Z,92916.00
2023-02-28T18:59:43.412Z,92946.00
2023-02-28T19:00:43.406Z,92948.00
2023-02-28T19:01:43.445Z,92946.00
2023-02-28T19:02:43.498Z,92948.00
2023-02-28T19:03:43.605Z,92946.00
2023-02-28T19:04:43.662Z,92950.00
2023-02-28T19:05:43.653Z,92954.00
2023-02-28T19:06:43.710Z,92952.00
2023-02-28T19:07:43.758Z,92956.00
2023-02-28T19:08:43.828Z,92956.00
2023-02-28T19:09:43.877Z,92958.00
2023-02-28T19:10:43.950Z,92956.00
2023-02-28T19:11:44.008Z,92954.00
2023-02-28T19:12:44.053Z,92958.00
2023-02-28T19:13:44.128Z,92956.00
2023-02-28T19:14:44.170Z,92958.00
2023-02-28T19:15:44.230Z,92958.00
2023-02-28T19:16:44.321Z,92963.00
2023-02-28T19:17:44.359Z,92962.00
2023-02-28T19:18:44.405Z,92963.00
2023-02-28T19:19:44.487Z,92963.00
2023-02-28T19:20:44.524Z,92962.00
2023-02-28T19:21:44.586Z,92962.00
2023-02-28T19:22:44.700Z,92963.00
2023-02-28T19:23:44.695Z,92963.00
2023-02-28T19:24:44.741Z,92965.00
2023-02-28T19:25:44.803Z,92967.00
2023-02-28T19:26:44.859Z,92967.00
2023-02-28T19:27:44.910Z,92967.00
2023-02-28T19:28:44.973Z,92969.00
2023-02-28T19:29:45.025Z,92967.00
2023-02-28T19:30:45.092Z,92967.00
2023-02-28T19:31:45.196Z,92967.00
2023-02-28T19:32:45.249Z,92969.00
2023-02-28T19:33:45.340Z,92971.00
2023-02-28T19:34:45.331Z,92971.00
2023-02-28T19:35:45.410Z,92973.00
2023-02-28T19:36:45.450Z,92973.00
2023-02-28T19:37:45.527Z,92973.00
2023-02-28T19:38:45.573Z,92973.00
2023-02-28T19:39:45.639Z,92973.00
2023-02-28T19:40:45.669Z,92973.00
2023-02-28T19:41:45.740Z,92975.00
2023-02-28T19:42:45.804Z,92971.00
2023-02-28T19:43:45.877Z,92977.00
2023-02-28T19:44:45.946Z,92973.00
2023-02-28T19:45:46.022Z,92973.00
2023-02-28T19:46:46.097Z,92973.00
2023-02-28T19:47:46.109Z,92973.00
2023-02-28T19:48:46.263Z,92975.00
2023-02-28T19:49:46.218Z,92975.00
2023-02-28T19:50:46.286Z,92975.00
2023-02-28T19:51:46.335Z,92975.00
2023-02-28T19:52:46.417Z,92975.00
2023-02-28T19:53:46.478Z,92977.00
2023-02-28T19:54:46.538Z,92973.00
2023-02-28T19:55:46.611Z,92973.00
2023-02-28T19:56:46.640Z,92973.00
2023-02-28T19:57:46.720Z,92975.00
2023-02-28T19:58:46.781Z,92973.00
2023-02-28T19:59:46.831Z,92975.00
2023-02-28T20:00:46.913Z,92975.00
2023-02-28T20:01:46.957Z,92975.00
2023-02-28T20:02:47.021Z,92975.00
2023-02-28T20:03:47.137Z,92975.00
2023-02-28T20:04:47.182Z,92975.00
2023-02-28T20:05:47.218Z,92977.00
2023-02-28T20:06:47.267Z,92977.00
2023-02-28T20:07:47.333Z,92977.00
2023-02-28T20:08:47.391Z,92981.00
2023-02-28T20:09:48.290Z,92981.00
2023-02-28T20:10:47.496Z,92983.00
2023-02-28T20:11:47.552Z,92985.00
2023-02-28T20:12:48.299Z,92987.00
2023-02-28T20:13:47.683Z,92989.00
2023-02-28T20:14:47.757Z,92987.00
2023-02-28T20:15:47.829Z,92987.00
2023-02-28T21:37:53.345Z,93017.00
2023-02-28T21:41:53.343Z,93017.00
2023-02-28T21:48:53.830Z,93018.00
2023-02-28T21:49:53.355Z,93017.00
2023-02-28T21:50:53.417Z,93018.00
2023-02-28T21:51:53.546Z,93015.00
2023-02-28T21:52:53.558Z,93015.00
2023-02-28T21:53:53.594Z,93017.00
2023-02-28T21:54:53.672Z,93017.00
2023-02-28T21:55:53.773Z,93015.00
2023-02-28T21:56:53.766Z,93017.00
2023-02-28T21:57:53.822Z,93015.00
2023-02-28T21:58:53.880Z,93015.00
2023-02-28T21:59:53.950Z,93015.00
2023-02-28T22:00:53.985Z,93017.00
2023-02-28T22:01:54.070Z,93017.00
2023-02-28T22:02:54.107Z,93015.00
2023-02-28T22:03:54.149Z,93015.00
2023-02-28T22:04:54.171Z,93015.00
2023-02-28T22:05:54.207Z,93017.00
2023-02-28T22:06:54.224Z,93018.00
2023-02-28T22:07:54.325Z,93020.00
2023-02-28T22:08:55.288Z,93020.00
2023-02-28T22:09:54.344Z,93017.00
2023-02-28T22:10:54.404Z,93018.00
2023-02-28T22:11:54.456Z,93018.00
2023-02-28T22:12:54.499Z,93020.00
2023-02-28T22:13:54.543Z,93020.00
2023-02-28T22:14:54.542Z,93022.00
2023-02-28T22:15:54.591Z,93022.00
2023-02-28T22:16:55.662Z,93022.00
2023-02-28T22:17:54.850Z,93022.00
2023-02-28T22:18:54.627Z,93022.00
2023-02-28T22:19:54.632Z,93022.00
2023-02-28T22:20:54.660Z,93022.00
2023-02-28T22:21:54.730Z,93022.00
2023-02-28T22:22:54.726Z,93022.00
2023-02-28T22:23:54.744Z,93022.00
2023-02-28T22:24:54.763Z,93022.00
2023-02-28T22:25:54.780Z,93022.00
2023-02-28T22:26:54.809Z,93024.00
2023-02-28T22:27:54.807Z,93024.00
2023-02-28T22:28:54.827Z,93024.00
2023-02-28T22:29:54.844Z,93024.00
2023-02-28T22:30:54.865Z,93024.00
2023-02-28T22:31:54.919Z,93022.00
2023-02-28T22:32:54.917Z,93020.00
2023-02-28T22:33:54.924Z,93024.00
2023-02-28T22:34:54.957Z,93026.00
2023-02-28T22:35:55.119Z,93026.00
2023-02-28T22:36:55.086Z,93028.00
2023-02-28T22:37:55.104Z,93030.00
2023-02-28T22:38:55.143Z,93028.00
2023-02-28T22:39:55.184Z,93028.00
2023-02-28T22:40:55.234Z,93030.00
2023-02-28T22:41:55.290Z,93032.00
2023-02-28T22:42:55.344Z,93030.00
2023-02-28T22:43:55.382Z,93030.00
2023-02-28T22:44:55.444Z,93032.00
2023-02-28T22:45:56.346Z,93030.00
2023-02-28T22:46:55.644Z,93032.00
2023-02-28T22:47:55.594Z,93032.00
2023-02-28T22:48:55.858Z,93034.00
2023-02-28T22:49:55.680Z,93032.00
2023-02-28T22:50:55.709Z,93032.00
2023-02-28T22:51:55.830Z,93032.00
2023-02-28T22:52:55.785Z,93030.00
2023-02-28T22:53:55.832Z,93032.00
2023-02-28T22:54:55.850Z,93030.00
2023-02-28T22:55:55.881Z,93032.00
2023-02-28T22:56:55.915Z,93032.00
2023-02-28T22:57:55.954Z,93030.00
2023-02-28T22:58:56.001Z,93028.00
2023-02-28T22:59:56.017Z,93032.00
2023-02-28T23:00:56.081Z,93028.00
2023-02-28T23:01:56.071Z,93028.00
2023-02-28T23:02:56.112Z,93028.00
2023-02-28T23:03:56.214Z,93028.00
2023-02-28T23:04:56.189Z,93028.00
2023-02-28T23:05:56.216Z,93028.00
2023-02-28T23:06:56.274Z,93030.00
2023-02-28T23:07:56.277Z,93028.00
2023-02-28T23:08:56.311Z,93028.00
2023-02-28T23:09:56.358Z,93026.00
2023-02-28T23:10:56.474Z,93028.00
2023-02-28T23:11:56.453Z,93028.00
2023-02-28T23:12:56.515Z,93026.00
2023-02-28T23:13:56.533Z,93026.00
2023-02-28T23:14:56.554Z,93028.00
2023-02-28T23:15:56.580Z,93024.00
2023-02-28T23:16:56.766Z,93024.00
2023-02-28T23:17:56.643Z,93024.00
2023-02-28T23:18:56.686Z,93024.00
2023-02-28T23:40:57.763Z,93015.00
2023-02-28T23:41:57.803Z,93015.00
2023-02-28T23:42:57.851Z,93013.00
2023-02-28T23:43:57.916Z,93015.00
2023-02-28T23:44:57.945Z,93013.00
2023-02-28T23:45:58.029Z,93015.00
2023-02-28T23:46:58.068Z,93015.00
2023-02-28T23:47:58.124Z,93015.00
2023-02-28T23:48:58.175Z,93017.00
2023-02-28T23:49:58.216Z,93017.00